sensor_id;sensor_type;location;lat;lon;timestamp;P1;P2;P0
57411;PMS5003;43247;52.828;-8.980;2024-01-15T00:00:47;26;26;
57411;PMS5003;43247;52.828;-8.980;2024-01-15T00:01:47;25;24;
57411;PMS5003;43247;52.828;-8.980;2024-01-15T00:02:47;25;23;
57411;PMS5003;43247;52.828;-8.980;2024-01-15T00:03:48;27;27;
57411;PMS5003;43247;52.828;-8.980;2024-01-15T00:04:48;24;22;
57411;PMS5003;43247;52.828;-8.980;2024-01-15T00:05:49;23;22;
57411;PMS5003;43247;52.828;-8.980;2024-01-15T00:06:50;23;23;
57411;PMS5003;43247;52.828;-8.980;2024-01-15T00:07:49;20;18;
57411;PMS5003;43247;52.828;-8.980;2024-01-15T00:08:50;26;25;
57411;PMS5003;43247;52.828;-8.980;2024-01-15T00:09:51;22;20;
57411;PMS5003;43247;52.828;-8.980;2024-01-15T00:10:51;21;21;
57411;PMS5003;43247;52.828;-8.980;2024-01-15T00:11:51;25;21;
57411;PMS5003;43247;52.828;-8.980;2024-01-15T00:12:52;22;19;
57411;PMS5003;43247;52.828;-8.980;2024-01-15T00:13:52;22;20;
57411;PMS5003;43247;52.828;-8.980;2024-01-15T00:14:53;22;22;
57411;PMS5003;43247;52.828;-8.980;2024-01-15T00:15:53;20;19;
57411;PMS5003;43247;52.828;-8.980;2024-01-15T00:16:54;18;18;
57411;PMS5003;43247;52.828;-8.980;2024-01-15T00:17:54;27;25;
57411;PMS5003;43247;52.828;-8.980;2024-01-15T00:18:54;20;17;
57411;PMS5003;43247;52.828;-8.980;2024-01-15T00:19:55;18;17;
57411;PMS5003;43247;52.828;-8.980;2024-01-15T00:20:55;18;18;
57411;PMS5003;43247;52.828;-8.980;2024-01-15T00:21:56;21;20;
57411;PMS5003;43247;52.828;-8.980;2024-01-15T00:22:56;23;20;
57411;PMS5003;43247;52.828;-8.980;2024-01-15T00:23:57;20;20;
57411;PMS5003;43247;52.828;-8.980;2024-01-15T00:24:57;21;21;
57411;PMS5003;43247;52.828;-8.980;2024-01-15T00:25:58;22;22;
57411;PMS5003;43247;52.828;-8.980;2024-01-15T00:26:58;18;18;
57411;PMS5003;43247;52.828;-8.980;2024-01-15T00:27:58;21;21;
57411;PMS5003;43247;52.828;-8.980;2024-01-15T00:28:59;23;20;
57411;PMS5003;43247;52.828;-8.980;2024-01-15T00:29:59;19;19;
57411;PMS5003;43247;52.828;-8.980;2024-01-15T00:30:59;20;19;
57411;PMS5003;43247;52.828;-8.980;2024-01-15T00:31:59;16;16;
57411;PMS5003;43247;52.828;-8.980;2024-01-15T00:32:59;17;17;
57411;PMS5003;43247;52.828;-8.980;2024-01-15T00:34:00;21;20;
57411;PMS5003;43247;52.828;-8.980;2024-01-15T00:35:00;21;21;
57411;PMS5003;43247;52.828;-8.980;2024-01-15T00:36:00;20;19;
57411;PMS5003;43247;52.828;-8.980;2024-01-15T00:37:01;23;20;
57411;PMS5003;43247;52.828;-8.980;2024-01-15T00:38:01;21;20;
57411;PMS5003;43247;52.828;-8.980;2024-01-15T00:39:02;20;19;
57411;PMS5003;43247;52.828;-8.980;2024-01-15T00:40:04;21;20;
57411;PMS5003;43247;52.828;-8.980;2024-01-15T00:41:04;24;23;
57411;PMS5003;43247;52.828;-8.980;2024-01-15T00:42:05;21;20;
57411;PMS5003;43247;52.828;-8.980;2024-01-15T00:43:05;19;19;
57411;PMS5003;43247;52.828;-8.980;2024-01-15T00:44:05;20;20;
57411;PMS5003;43247;52.828;-8.980;2024-01-15T00:45:06;22;19;
57411;PMS5003;43247;52.828;-8.980;2024-01-15T00:46:06;19;19;
57411;PMS5003;43247;52.828;-8.980;2024-01-15T00:47:07;20;18;
57411;PMS5003;43247;52.828;-8.980;2024-01-15T00:48:07;20;18;
57411;PMS5003;43247;52.828;-8.980;2024-01-15T00:49:08;19;17;
57411;PMS5003;43247;52.828;-8.980;2024-01-15T00:50:08;18;17;
57411;PMS5003;43247;52.828;-8.980;2024-01-15T00:51:08;16;16;
57411;PMS5003;43247;52.828;-8.980;2024-01-15T00:52:08;17;15;
57411;PMS5003;43247;52.828;-8.980;2024-01-15T00:53:09;16;16;
57411;PMS5003;43247;52.828;-8.980;2024-01-15T00:54:09;19;19;
57411;PMS5003;43247;52.828;-8.980;2024-01-15T00:55:10;17;17;
57411;PMS5003;43247;52.828;-8.980;2024-01-15T00:56:10;16;16;
57411;PMS5003;43247;52.828;-8.980;2024-01-15T00:57:10;17;15;
57411;PMS5003;43247;52.828;-8.980;2024-01-15T00:58:11;16;16;
57411;PMS5003;43247;52.828;-8.980;2024-01-15T00:59:10;15;15;
57411;PMS5003;43247;52.828;-8.980;2024-01-15T01:00:11;16;14;
57411;PMS5003;43247;52.828;-8.980;2024-01-15T01:01:12;15;15;
57411;PMS5003;43247;52.828;-8.980;2024-01-15T01:02:12;14;14;
57411;PMS5003;43247;52.828;-8.980;2024-01-15T01:03:12;17;16;
57411;PMS5003;43247;52.828;-8.980;2024-01-15T01:04:13;15;15;
57411;PMS5003;43247;52.828;-8.980;2024-01-15T01:05:13;16;14;
57411;PMS5003;43247;52.828;-8.980;2024-01-15T01:06:13;15;15;
57411;PMS5003;43247;52.828;-8.980;2024-01-15T01:07:14;15;15;
57411;PMS5003;43247;52.828;-8.980;2024-01-15T01:08:15;15;14;
57411;PMS5003;43247;52.828;-8.980;2024-01-15T01:09:15;15;14;
57411;PMS5003;43247;52.828;-8.980;2024-01-15T01:10:15;16;15;
57411;PMS5003;43247;52.828;-8.980;2024-01-15T01:11:16;19;19;
57411;PMS5003;43247;52.828;-8.980;2024-01-15T01:12:16;16;15;
57411;PMS5003;43247;52.828;-8.980;2024-01-15T01:13:16;11;11;
57411;PMS5003;43247;52.828;-8.980;2024-01-15T01:14:17;14;14;
57411;PMS5003;43247;52.828;-8.980;2024-01-15T01:15:17;17;14;
57411;PMS5003;43247;52.828;-8.980;2024-01-15T01:16:17;14;13;
57411;PMS5003;43247;52.828;-8.980;2024-01-15T01:17:18;15;13;
57411;PMS5003;43247;52.828;-8.980;2024-01-15T01:18:18;13;13;
57411;PMS5003;43247;52.828;-8.980;2024-01-15T01:19:18;14;13;
57411;PMS5003;43247;52.828;-8.980;2024-01-15T01:20:19;16;15;
57411;PMS5003;43247;52.828;-8.980;2024-01-15T01:21:19;11;11;
57411;PMS5003;43247;52.828;-8.980;2024-01-15T01:22:19;13;12;
57411;PMS5003;43247;52.828;-8.980;2024-01-15T01:23:19;13;12;
57411;PMS5003;43247;52.828;-8.980;2024-01-15T01:24:20;13;12;
57411;PMS5003;43247;52.828;-8.980;2024-01-15T01:25:20;13;11;
57411;PMS5003;43247;52.828;-8.980;2024-01-15T01:26:20;12;12;
57411;PMS5003;43247;52.828;-8.980;2024-01-15T01:27:20;10;10;
57411;PMS5003;43247;52.828;-8.980;2024-01-15T01:28:20;10;9;
57411;PMS5003;43247;52.828;-8.980;2024-01-15T01:29:21;11;11;
57411;PMS5003;43247;52.828;-8.980;2024-01-15T01:30:21;13;12;
57411;PMS5003;43247;52.828;-8.980;2024-01-15T01:31:21;14;13;
57411;PMS5003;43247;52.828;-8.980;2024-01-15T01:32:21;11;11;
57411;PMS5003;43247;52.828;-8.980;2024-01-15T01:33:22;13;11;
57411;PMS5003;43247;52.828;-8.980;2024-01-15T01:34:22;11;11;
57411;PMS5003;43247;52.828;-8.980;2024-01-15T01:35:23;10;10;
57411;PMS5003;43247;52.828;-8.980;2024-01-15T01:36:23;12;12;
57411;PMS5003;43247;52.828;-8.980;2024-01-15T01:37:23;14;12;
57411;PMS5003;43247;52.828;-8.980;2024-01-15T01:38:24;10;10;
57411;PMS5003;43247;52.828;-8.980;2024-01-15T01:39:24;10;10;
57411;PMS5003;43247;52.828;-8.980;2024-01-15T01:40:24;11;11;
57411;PMS5003;43247;52.828;-8.980;2024-01-15T01:41:24;9;9;
57411;PMS5003;43247;52.828;-8.980;2024-01-15T01:42:25;10;10;
57411;PMS5003;43247;52.828;-8.980;2024-01-15T01:43:25;12;12;
57411;PMS5003;43247;52.828;-8.980;2024-01-15T01:44:25;13;12;
57411;PMS5003;43247;52.828;-8.980;2024-01-15T01:45:25;8;8;
57411;PMS5003;43247;52.828;-8.980;2024-01-15T01:46:26;12;11;
57411;PMS5003;43247;52.828;-8.980;2024-01-15T01:47:26;8;8;
57411;PMS5003;43247;52.828;-8.980;2024-01-15T01:48:26;12;11;
57411;PMS5003;43247;52.828;-8.980;2024-01-15T01:49:27;10;9;
57411;PMS5003;43247;52.828;-8.980;2024-01-15T01:50:27;13;11;
57411;PMS5003;43247;52.828;-8.980;2024-01-15T01:51:27;12;10;
57411;PMS5003;43247;52.828;-8.980;2024-01-15T01:52:27;10;10;
57411;PMS5003;43247;52.828;-8.980;2024-01-15T01:53:28;10;8;
57411;PMS5003;43247;52.828;-8.980;2024-01-15T01:54:28;10;10;
57411;PMS5003;43247;52.828;-8.980;2024-01-15T01:55:28;12;11;
57411;PMS5003;43247;52.828;-8.980;2024-01-15T01:56:28;10;9;
57411;PMS5003;43247;52.828;-8.980;2024-01-15T01:57:29;13;10;
57411;PMS5003;43247;52.828;-8.980;2024-01-15T01:58:29;9;9;
57411;PMS5003;43247;52.828;-8.980;2024-01-15T01:59:29;14;13;
57411;PMS5003;43247;52.828;-8.980;2024-01-15T02:00:30;9;9;
57411;PMS5003;43247;52.828;-8.980;2024-01-15T02:01:30;11;10;
57411;PMS5003;43247;52.828;-8.980;2024-01-15T02:02:30;10;9;
57411;PMS5003;43247;52.828;-8.980;2024-01-15T02:03:30;10;10;
57411;PMS5003;43247;52.828;-8.980;2024-01-15T02:04:31;11;10;
57411;PMS5003;43247;52.828;-8.980;2024-01-15T02:05:31;9;9;
57411;PMS5003;43247;52.828;-8.980;2024-01-15T02:06:31;12;12;
57411;PMS5003;43247;52.828;-8.980;2024-01-15T02:07:32;15;12;
57411;PMS5003;43247;52.828;-8.980;2024-01-15T02:08:32;13;10;
57411;PMS5003;43247;52.828;-8.980;2024-01-15T02:09:32;10;10;
57411;PMS5003;43247;52.828;-8.980;2024-01-15T02:10:32;11;10;
57411;PMS5003;43247;52.828;-8.980;2024-01-15T02:11:32;11;11;
57411;PMS5003;43247;52.828;-8.980;2024-01-15T02:12:33;12;11;
57411;PMS5003;43247;52.828;-8.980;2024-01-15T02:13:33;10;10;
57411;PMS5003;43247;52.828;-8.980;2024-01-15T02:14:34;13;13;
57411;PMS5003;43247;52.828;-8.980;2024-01-15T02:15:34;10;10;
57411;PMS5003;43247;52.828;-8.980;2024-01-15T02:16:34;12;11;
57411;PMS5003;43247;52.828;-8.980;2024-01-15T02:17:34;10;10;
57411;PMS5003;43247;52.828;-8.980;2024-01-15T02:19:35;11;11;
57411;PMS5003;43247;52.828;-8.980;2024-01-15T02:20:35;13;11;
57411;PMS5003;43247;52.828;-8.980;2024-01-15T02:21:36;14;14;
57411;PMS5003;43247;52.828;-8.980;2024-01-15T02:22:36;13;13;
57411;PMS5003;43247;52.828;-8.980;2024-01-15T02:23:36;16;12;
57411;PMS5003;43247;52.828;-8.980;2024-01-15T02:24:36;11;10;
57411;PMS5003;43247;52.828;-8.980;2024-01-15T02:25:37;12;11;
57411;PMS5003;43247;52.828;-8.980;2024-01-15T02:26:37;10;9;
57411;PMS5003;43247;52.828;-8.980;2024-01-15T02:27:38;9;9;
57411;PMS5003;43247;52.828;-8.980;2024-01-15T02:28:38;11;10;
57411;PMS5003;43247;52.828;-8.980;2024-01-15T02:29:38;13;12;
57411;PMS5003;43247;52.828;-8.980;2024-01-15T02:30:39;13;11;
57411;PMS5003;43247;52.828;-8.980;2024-01-15T02:31:38;12;12;
57411;PMS5003;43247;52.828;-8.980;2024-01-15T02:32:39;12;12;
57411;PMS5003;43247;52.828;-8.980;2024-01-15T02:33:39;12;12;
57411;PMS5003;43247;52.828;-8.980;2024-01-15T02:34:39;13;12;
57411;PMS5003;43247;52.828;-8.980;2024-01-15T02:35:39;16;15;
57411;PMS5003;43247;52.828;-8.980;2024-01-15T02:36:39;11;11;
57411;PMS5003;43247;52.828;-8.980;2024-01-15T02:37:40;11;11;
57411;PMS5003;43247;52.828;-8.980;2024-01-15T02:38:41;11;11;
57411;PMS5003;43247;52.828;-8.980;2024-01-15T02:39:40;11;11;
57411;PMS5003;43247;52.828;-8.980;2024-01-15T02:40:40;12;12;
57411;PMS5003;43247;52.828;-8.980;2024-01-15T02:41:41;14;12;
57411;PMS5003;43247;52.828;-8.980;2024-01-15T02:42:41;10;10;
57411;PMS5003;43247;52.828;-8.980;2024-01-15T02:43:42;11;11;
57411;PMS5003;43247;52.828;-8.980;2024-01-15T02:44:42;16;15;
57411;PMS5003;43247;52.828;-8.980;2024-01-15T02:45:43;10;10;
57411;PMS5003;43247;52.828;-8.980;2024-01-15T02:46:43;14;14;
57411;PMS5003;43247;52.828;-8.980;2024-01-15T02:47:43;12;12;
57411;PMS5003;43247;52.828;-8.980;2024-01-15T02:48:43;13;13;
57411;PMS5003;43247;52.828;-8.980;2024-01-15T02:49:44;14;14;
57411;PMS5003;43247;52.828;-8.980;2024-01-15T02:50:44;15;10;
57411;PMS5003;43247;52.828;-8.980;2024-01-15T02:51:44;10;10;
57411;PMS5003;43247;52.828;-8.980;2024-01-15T02:52:45;13;12;
57411;PMS5003;43247;52.828;-8.980;2024-01-15T02:53:45;10;10;
57411;PMS5003;43247;52.828;-8.980;2024-01-15T02:54:46;15;15;
57411;PMS5003;43247;52.828;-8.980;2024-01-15T02:55:46;13;12;
57411;PMS5003;43247;52.828;-8.980;2024-01-15T02:56:46;12;12;
57411;PMS5003;43247;52.828;-8.980;2024-01-15T02:57:46;11;11;
57411;PMS5003;43247;52.828;-8.980;2024-01-15T02:58:47;10;10;
57411;PMS5003;43247;52.828;-8.980;2024-01-15T02:59:47;15;15;
57411;PMS5003;43247;52.828;-8.980;2024-01-15T03:00:48;17;15;
57411;PMS5003;43247;52.828;-8.980;2024-01-15T03:01:48;11;11;
57411;PMS5003;43247;52.828;-8.980;2024-01-15T03:02:49;15;15;
57411;PMS5003;43247;52.828;-8.980;2024-01-15T03:03:48;11;11;
57411;PMS5003;43247;52.828;-8.980;2024-01-15T03:04:48;13;10;
57411;PMS5003;43247;52.828;-8.980;2024-01-15T03:05:49;14;13;
57411;PMS5003;43247;52.828;-8.980;2024-01-15T03:06:49;13;13;
57411;PMS5003;43247;52.828;-8.980;2024-01-15T03:07:50;16;16;
57411;PMS5003;43247;52.828;-8.980;2024-01-15T03:08:50;12;12;
57411;PMS5003;43247;52.828;-8.980;2024-01-15T03:09:50;10;10;
57411;PMS5003;43247;52.828;-8.980;2024-01-15T03:10:50;13;12;
57411;PMS5003;43247;52.828;-8.980;2024-01-15T03:11:51;12;11;
57411;PMS5003;43247;52.828;-8.980;2024-01-15T03:12:51;11;11;
57411;PMS5003;43247;52.828;-8.980;2024-01-15T03:13:51;11;11;
57411;PMS5003;43247;52.828;-8.980;2024-01-15T03:14:51;14;12;
57411;PMS5003;43247;52.828;-8.980;2024-01-15T03:15:51;12;12;
57411;PMS5003;43247;52.828;-8.980;2024-01-15T03:16:52;13;12;
57411;PMS5003;43247;52.828;-8.980;2024-01-15T03:17:52;15;13;
57411;PMS5003;43247;52.828;-8.980;2024-01-15T03:18:52;12;12;
57411;PMS5003;43247;52.828;-8.980;2024-01-15T03:19:52;13;12;
57411;PMS5003;43247;52.828;-8.980;2024-01-15T03:20:53;12;11;
57411;PMS5003;43247;52.828;-8.980;2024-01-15T03:21:53;13;12;
57411;PMS5003;43247;52.828;-8.980;2024-01-15T03:22:53;11;11;
57411;PMS5003;43247;52.828;-8.980;2024-01-15T03:23:54;13;12;
57411;PMS5003;43247;52.828;-8.980;2024-01-15T03:24:54;14;13;
57411;PMS5003;43247;52.828;-8.980;2024-01-15T03:25:54;14;12;
57411;PMS5003;43247;52.828;-8.980;2024-01-15T03:26:54;13;10;
57411;PMS5003;43247;52.828;-8.980;2024-01-15T03:27:55;13;13;
57411;PMS5003;43247;52.828;-8.980;2024-01-15T03:28:55;12;11;
57411;PMS5003;43247;52.828;-8.980;2024-01-15T03:29:55;15;15;
57411;PMS5003;43247;52.828;-8.980;2024-01-15T03:30:55;14;12;
57411;PMS5003;43247;52.828;-8.980;2024-01-15T03:31:56;10;10;
57411;PMS5003;43247;52.828;-8.980;2024-01-15T03:32:56;12;11;
57411;PMS5003;43247;52.828;-8.980;2024-01-15T03:33:57;15;14;
57411;PMS5003;43247;52.828;-8.980;2024-01-15T03:34:56;14;13;
57411;PMS5003;43247;52.828;-8.980;2024-01-15T03:35:57;14;14;
57411;PMS5003;43247;52.828;-8.980;2024-01-15T03:36:57;17;16;
57411;PMS5003;43247;52.828;-8.980;2024-01-15T03:37:57;18;16;
57411;PMS5003;43247;52.828;-8.980;2024-01-15T03:38:57;12;11;
57411;PMS5003;43247;52.828;-8.980;2024-01-15T03:39:58;14;14;
57411;PMS5003;43247;52.828;-8.980;2024-01-15T03:40:58;17;16;
57411;PMS5003;43247;52.828;-8.980;2024-01-15T03:41:58;14;13;
57411;PMS5003;43247;52.828;-8.980;2024-01-15T03:42:58;17;15;
57411;PMS5003;43247;52.828;-8.980;2024-01-15T03:43:59;13;13;
57411;PMS5003;43247;52.828;-8.980;2024-01-15T03:44:59;20;20;
57411;PMS5003;43247;52.828;-8.980;2024-01-15T03:46:00;20;18;
57411;PMS5003;43247;52.828;-8.980;2024-01-15T03:47:00;18;17;
57411;PMS5003;43247;52.828;-8.980;2024-01-15T03:48:01;17;17;
57411;PMS5003;43247;52.828;-8.980;2024-01-15T03:49:01;17;16;
57411;PMS5003;43247;52.828;-8.980;2024-01-15T03:50:03;19;18;
57411;PMS5003;43247;52.828;-8.980;2024-01-15T03:51:04;20;19;
57411;PMS5003;43247;52.828;-8.980;2024-01-15T03:52:05;21;20;
57411;PMS5003;43247;52.828;-8.980;2024-01-15T03:53:05;24;22;
57411;PMS5003;43247;52.828;-8.980;2024-01-15T03:54:06;18;18;
57411;PMS5003;43247;52.828;-8.980;2024-01-15T03:55:06;22;22;
57411;PMS5003;43247;52.828;-8.980;2024-01-15T03:56:06;23;21;
57411;PMS5003;43247;52.828;-8.980;2024-01-15T03:57:07;23;23;
57411;PMS5003;43247;52.828;-8.980;2024-01-15T03:58:08;25;23;
57411;PMS5003;43247;52.828;-8.980;2024-01-15T03:59:08;21;20;
57411;PMS5003;43247;52.828;-8.980;2024-01-15T04:00:09;24;22;
57411;PMS5003;43247;52.828;-8.980;2024-01-15T04:01:09;21;21;
57411;PMS5003;43247;52.828;-8.980;2024-01-15T04:02:09;24;23;
57411;PMS5003;43247;52.828;-8.980;2024-01-15T04:03:10;23;20;
57411;PMS5003;43247;52.828;-8.980;2024-01-15T04:04:10;20;20;
57411;PMS5003;43247;52.828;-8.980;2024-01-15T04:05:10;20;20;
57411;PMS5003;43247;52.828;-8.980;2024-01-15T04:06:11;25;24;
57411;PMS5003;43247;52.828;-8.980;2024-01-15T04:07:12;23;20;
57411;PMS5003;43247;52.828;-8.980;2024-01-15T04:08:13;26;24;
57411;PMS5003;43247;52.828;-8.980;2024-01-15T04:09:13;23;20;
57411;PMS5003;43247;52.828;-8.980;2024-01-15T04:10:13;24;21;
57411;PMS5003;43247;52.828;-8.980;2024-01-15T04:11:14;20;19;
57411;PMS5003;43247;52.828;-8.980;2024-01-15T04:12:14;21;21;
57411;PMS5003;43247;52.828;-8.980;2024-01-15T04:13:14;21;20;
57411;PMS5003;43247;52.828;-8.980;2024-01-15T04:14:14;22;21;
57411;PMS5003;43247;52.828;-8.980;2024-01-15T04:15:15;26;26;
57411;PMS5003;43247;52.828;-8.980;2024-01-15T04:16:15;25;23;
57411;PMS5003;43247;52.828;-8.980;2024-01-15T04:17:15;20;20;
57411;PMS5003;43247;52.828;-8.980;2024-01-15T04:18:15;25;23;
57411;PMS5003;43247;52.828;-8.980;2024-01-15T04:19:16;19;19;
57411;PMS5003;43247;52.828;-8.980;2024-01-15T04:20:16;19;19;
57411;PMS5003;43247;52.828;-8.980;2024-01-15T04:21:16;19;18;
57411;PMS5003;43247;52.828;-8.980;2024-01-15T04:22:17;23;22;
57411;PMS5003;43247;52.828;-8.980;2024-01-15T04:23:18;22;21;
57411;PMS5003;43247;52.828;-8.980;2024-01-15T04:24:18;23;20;
57411;PMS5003;43247;52.828;-8.980;2024-01-15T04:25:19;19;19;
57411;PMS5003;43247;52.828;-8.980;2024-01-15T04:26:19;20;20;
57411;PMS5003;43247;52.828;-8.980;2024-01-15T04:27:19;23;22;
57411;PMS5003;43247;52.828;-8.980;2024-01-15T04:28:20;23;20;
57411;PMS5003;43247;52.828;-8.980;2024-01-15T04:29:21;21;20;
57411;PMS5003;43247;52.828;-8.980;2024-01-15T04:30:21;23;20;
57411;PMS5003;43247;52.828;-8.980;2024-01-15T04:31:22;19;18;
57411;PMS5003;43247;52.828;-8.980;2024-01-15T04:32:21;19;17;
57411;PMS5003;43247;52.828;-8.980;2024-01-15T04:33:22;18;18;
57411;PMS5003;43247;52.828;-8.980;2024-01-15T04:34:23;18;18;
57411;PMS5003;43247;52.828;-8.980;2024-01-15T04:35:23;15;14;
57411;PMS5003;43247;52.828;-8.980;2024-01-15T04:36:23;23;22;
57411;PMS5003;43247;52.828;-8.980;2024-01-15T04:37:23;20;20;
57411;PMS5003;43247;52.828;-8.980;2024-01-15T04:38:24;20;19;
57411;PMS5003;43247;52.828;-8.980;2024-01-15T04:39:24;23;20;
57411;PMS5003;43247;52.828;-8.980;2024-01-15T04:40:24;18;18;
57411;PMS5003;43247;52.828;-8.980;2024-01-15T04:41:24;21;18;
57411;PMS5003;43247;52.828;-8.980;2024-01-15T04:42:25;19;19;
57411;PMS5003;43247;52.828;-8.980;2024-01-15T04:43:26;20;20;
57411;PMS5003;43247;52.828;-8.980;2024-01-15T04:44:26;21;17;
57411;PMS5003;43247;52.828;-8.980;2024-01-15T04:45:26;21;17;
57411;PMS5003;43247;52.828;-8.980;2024-01-15T04:46:27;19;18;
57411;PMS5003;43247;52.828;-8.980;2024-01-15T04:47:28;17;16;
57411;PMS5003;43247;52.828;-8.980;2024-01-15T04:48:28;16;15;
57411;PMS5003;43247;52.828;-8.980;2024-01-15T04:49:28;15;15;
57411;PMS5003;43247;52.828;-8.980;2024-01-15T04:50:28;18;14;
57411;PMS5003;43247;52.828;-8.980;2024-01-15T04:51:28;15;15;
57411;PMS5003;43247;52.828;-8.980;2024-01-15T04:52:29;14;13;
57411;PMS5003;43247;52.828;-8.980;2024-01-15T04:53:29;13;13;
57411;PMS5003;43247;52.828;-8.980;2024-01-15T04:54:30;12;12;
57411;PMS5003;43247;52.828;-8.980;2024-01-15T04:55:30;13;13;
57411;PMS5003;43247;52.828;-8.980;2024-01-15T04:56:30;10;10;
57411;PMS5003;43247;52.828;-8.980;2024-01-15T04:57:30;13;13;
57411;PMS5003;43247;52.828;-8.980;2024-01-15T04:58:30;12;9;
57411;PMS5003;43247;52.828;-8.980;2024-01-15T04:59:31;12;11;
57411;PMS5003;43247;52.828;-8.980;2024-01-15T05:00:31;13;12;
57411;PMS5003;43247;52.828;-8.980;2024-01-15T05:01:31;11;11;
57411;PMS5003;43247;52.828;-8.980;2024-01-15T05:02:31;14;9;
57411;PMS5003;43247;52.828;-8.980;2024-01-15T05:03:32;11;11;
57411;PMS5003;43247;52.828;-8.980;2024-01-15T05:04:32;11;10;
57411;PMS5003;43247;52.828;-8.980;2024-01-15T05:05:33;11;11;
57411;PMS5003;43247;52.828;-8.980;2024-01-15T05:06:33;11;11;
57411;PMS5003;43247;52.828;-8.980;2024-01-15T05:07:33;10;10;
57411;PMS5003;43247;52.828;-8.980;2024-01-15T05:08:33;11;11;
57411;PMS5003;43247;52.828;-8.980;2024-01-15T05:09:34;11;9;
57411;PMS5003;43247;52.828;-8.980;2024-01-15T05:10:34;10;8;
57411;PMS5003;43247;52.828;-8.980;2024-01-15T05:11:35;9;8;
57411;PMS5003;43247;52.828;-8.980;2024-01-15T05:12:35;8;8;
57411;PMS5003;43247;52.828;-8.980;2024-01-15T05:13:35;8;6;
57411;PMS5003;43247;52.828;-8.980;2024-01-15T05:14:36;8;8;
57411;PMS5003;43247;52.828;-8.980;2024-01-15T05:15:36;9;7;
57411;PMS5003;43247;52.828;-8.980;2024-01-15T05:16:37;7;7;
57411;PMS5003;43247;52.828;-8.980;2024-01-15T05:17:36;7;7;
57411;PMS5003;43247;52.828;-8.980;2024-01-15T05:18:36;9;6;
57411;PMS5003;43247;52.828;-8.980;2024-01-15T05:19:37;8;8;
57411;PMS5003;43247;52.828;-8.980;2024-01-15T05:20:37;10;7;
57411;PMS5003;43247;52.828;-8.980;2024-01-15T05:21:37;9;9;
57411;PMS5003;43247;52.828;-8.980;2024-01-15T05:22:37;7;7;
57411;PMS5003;43247;52.828;-8.980;2024-01-15T05:23:38;6;6;
57411;PMS5003;43247;52.828;-8.980;2024-01-15T05:24:38;8;8;
57411;PMS5003;43247;52.828;-8.980;2024-01-15T05:25:39;8;8;
57411;PMS5003;43247;52.828;-8.980;2024-01-15T05:26:39;7;7;
57411;PMS5003;43247;52.828;-8.980;2024-01-15T05:27:39;5;5;
57411;PMS5003;43247;52.828;-8.980;2024-01-15T05:28:40;8;8;
57411;PMS5003;43247;52.828;-8.980;2024-01-15T05:29:40;11;8;
57411;PMS5003;43247;52.828;-8.980;2024-01-15T05:30:40;6;6;
57411;PMS5003;43247;52.828;-8.980;2024-01-15T05:31:40;5;5;
57411;PMS5003;43247;52.828;-8.980;2024-01-15T05:32:40;5;4;
57411;PMS5003;43247;52.828;-8.980;2024-01-15T05:33:40;6;5;
57411;PMS5003;43247;52.828;-8.980;2024-01-15T05:34:40;6;6;
57411;PMS5003;43247;52.828;-8.980;2024-01-15T05:35:41;8;6;
57411;PMS5003;43247;52.828;-8.980;2024-01-15T05:36:41;8;7;
57411;PMS5003;43247;52.828;-8.980;2024-01-15T05:37:43;5;5;
57411;PMS5003;43247;52.828;-8.980;2024-01-15T05:38:41;4;4;
57411;PMS5003;43247;52.828;-8.980;2024-01-15T05:39:42;5;5;
57411;PMS5003;43247;52.828;-8.980;2024-01-15T05:40:42;6;6;
57411;PMS5003;43247;52.828;-8.980;2024-01-15T05:41:42;9;7;
57411;PMS5003;43247;52.828;-8.980;2024-01-15T05:42:42;5;5;
57411;PMS5003;43247;52.828;-8.980;2024-01-15T05:43:42;4;4;
57411;PMS5003;43247;52.828;-8.980;2024-01-15T05:44:43;8;5;
57411;PMS5003;43247;52.828;-8.980;2024-01-15T05:45:43;6;6;
57411;PMS5003;43247;52.828;-8.980;2024-01-15T05:46:43;7;7;
57411;PMS5003;43247;52.828;-8.980;2024-01-15T05:47:43;7;7;
57411;PMS5003;43247;52.828;-8.980;2024-01-15T05:48:44;7;7;
57411;PMS5003;43247;52.828;-8.980;2024-01-15T05:49:44;5;5;
57411;PMS5003;43247;52.828;-8.980;2024-01-15T05:50:44;9;6;
57411;PMS5003;43247;52.828;-8.980;2024-01-15T05:51:44;5;5;
57411;PMS5003;43247;52.828;-8.980;2024-01-15T05:52:44;7;5;
57411;PMS5003;43247;52.828;-8.980;2024-01-15T05:53:45;5;5;
57411;PMS5003;43247;52.828;-8.980;2024-01-15T05:54:45;5;5;
57411;PMS5003;43247;52.828;-8.980;2024-01-15T05:55:45;5;4;
57411;PMS5003;43247;52.828;-8.980;2024-01-15T05:56:45;7;6;
57411;PMS5003;43247;52.828;-8.980;2024-01-15T05:57:46;4;4;
57411;PMS5003;43247;52.828;-8.980;2024-01-15T05:58:46;4;4;
57411;PMS5003;43247;52.828;-8.980;2024-01-15T05:59:46;3;3;
57411;PMS5003;43247;52.828;-8.980;2024-01-15T06:00:46;3;3;
57411;PMS5003;43247;52.828;-8.980;2024-01-15T06:01:46;5;5;
57411;PMS5003;43247;52.828;-8.980;2024-01-15T06:02:47;3;3;
57411;PMS5003;43247;52.828;-8.980;2024-01-15T06:03:47;3;3;
57411;PMS5003;43247;52.828;-8.980;2024-01-15T06:04:47;5;5;
57411;PMS5003;43247;52.828;-8.980;2024-01-15T06:05:47;3;3;
57411;PMS5003;43247;52.828;-8.980;2024-01-15T06:06:47;6;6;
57411;PMS5003;43247;52.828;-8.980;2024-01-15T06:07:48;3;3;
57411;PMS5003;43247;52.828;-8.980;2024-01-15T06:08:48;5;5;
57411;PMS5003;43247;52.828;-8.980;2024-01-15T06:09:48;3;3;
57411;PMS5003;43247;52.828;-8.980;2024-01-15T06:10:48;8;5;
57411;PMS5003;43247;52.828;-8.980;2024-01-15T06:11:49;4;4;
57411;PMS5003;43247;52.828;-8.980;2024-01-15T06:12:49;4;3;
57411;PMS5003;43247;52.828;-8.980;2024-01-15T06:13:50;5;5;
57411;PMS5003;43247;52.828;-8.980;2024-01-15T06:14:50;4;4;
57411;PMS5003;43247;52.828;-8.980;2024-01-15T06:15:50;2;2;
57411;PMS5003;43247;52.828;-8.980;2024-01-15T06:16:50;3;3;
57411;PMS5003;43247;52.828;-8.980;2024-01-15T06:17:50;2;2;
57411;PMS5003;43247;52.828;-8.980;2024-01-15T06:18:51;3;3;
57411;PMS5003;43247;52.828;-8.980;2024-01-15T06:19:51;3;3;
57411;PMS5003;43247;52.828;-8.980;2024-01-15T06:20:51;4;4;
57411;PMS5003;43247;52.828;-8.980;2024-01-15T06:21:51;3;3;
57411;PMS5003;43247;52.828;-8.980;2024-01-15T06:22:51;2;2;
57411;PMS5003;43247;52.828;-8.980;2024-01-15T06:23:52;4;4;
57411;PMS5003;43247;52.828;-8.980;2024-01-15T06:24:52;2;2;
57411;PMS5003;43247;52.828;-8.980;2024-01-15T06:25:52;3;3;
57411;PMS5003;43247;52.828;-8.980;2024-01-15T06:26:52;2;2;
57411;PMS5003;43247;52.828;-8.980;2024-01-15T06:27:53;4;1;
57411;PMS5003;43247;52.828;-8.980;2024-01-15T06:28:53;2;1;
57411;PMS5003;43247;52.828;-8.980;2024-01-15T06:29:53;2;2;
57411;PMS5003;43247;52.828;-8.980;2024-01-15T06:30:53;1;1;
57411;PMS5003;43247;52.828;-8.980;2024-01-15T06:31:53;2;2;
57411;PMS5003;43247;52.828;-8.980;2024-01-15T06:32:54;5;4;
57411;PMS5003;43247;52.828;-8.980;2024-01-15T06:33:54;2;2;
57411;PMS5003;43247;52.828;-8.980;2024-01-15T06:34:54;2;2;
57411;PMS5003;43247;52.828;-8.980;2024-01-15T06:35:54;3;3;
57411;PMS5003;43247;52.828;-8.980;2024-01-15T06:36:55;1;1;
57411;PMS5003;43247;52.828;-8.980;2024-01-15T06:37:55;4;4;